Monday, February 8, 2016, 9:16 AM EST

KOFP, Hanover County Municipal

Location: Ashland, VA, United States Lat: 37.7
Local Time: 9:16 AM EST (14:16 GMT) Lon: -77.433
Time Zone: US/Eastern Elev: 203 ft

Show me the last for .
Show Decoded

2016-02-08 08:54 METAR KOFP 081354Z AUTO VRB03KT 10SM CLR 04/M06 A2980 RMK AO2 SLP093 T00391056 =
2016-02-08 07:54 METAR KOFP 081254Z AUTO 00000KT 10SM CLR 01/M06 A2982 RMK AO2 SLP098 T00111061 =
2016-02-08 06:54 METAR KOFP 081154Z AUTO 31003KT 10SM CLR M01/M07 A2982 RMK AO2 SLP098 T10061067
                 10039 21006 51014 =
2016-02-08 05:54 METAR KOFP 081054Z AUTO 31004KT 10SM CLR 00/M07 A2981 RMK AO2 SLP097 T00001067 =
2016-02-08 04:54 METAR KOFP 080954Z AUTO VRB05KT 10SM CLR 01/M06 A2978 RMK AO2 SLP086 T00111061 =
2016-02-08 03:54 METAR KOFP 080854Z AUTO 31008KT 10SM CLR 01/M06 A2978 RMK AO2 SLP084 T00061056
                 55007 =
2016-02-08 02:54 METAR KOFP 080754Z AUTO 31008KT 10SM CLR 02/M06 A2977 RMK AO2 SLP083 T00171056 =
2016-02-08 01:54 METAR KOFP 080654Z AUTO 31006KT 10SM CLR 03/M06 A2979 RMK AO2 SLP086 T00281061 =
2016-02-08 00:54 METAR KOFP 080554Z AUTO VRB05KT 10SM CLR 04/M07 A2980 RMK AO2 SLP090 T00391067
                 10050 20039 58028 =
2016-02-07 23:54 METAR KOFP 080454Z AUTO VRB06KT 10SM CLR 04/M08 A2983 RMK AO2 SLP101 T00391078
                 400721033 =
2016-02-07 22:54 METAR KOFP 080354Z AUTO VRB06KT 10SM CLR 04/M07 A2985 RMK AO2 SLP111 T00391072 =
2016-02-07 21:54 METAR KOFP 080254Z AUTO 35004KT 10SM CLR 04/M07 A2988 RMK AO2 SLP119 T00391067
                 58013 =
2016-02-07 20:54 METAR KOFP 080154Z AUTO VRB05KT 10SM CLR 04/M07 A2990 RMK AO2 SLP126 T00391072 =
2016-02-07 19:54 METAR KOFP 080054Z AUTO 36006KT 10SM CLR 05/M07 A2991 RMK AO2 SLP130 T00501072 =
2016-02-07 18:54 METAR KOFP 072354Z AUTO VRB04KT 10SM CLR 05/M06 A2992 RMK AO2 SLP132 T00501061
                 10072 20050 56026 =
2016-02-07 17:54 METAR KOFP 072254Z AUTO 36004KT 10SM CLR 06/M06 A2994 RMK AO2 SLP138 T00561061 =
2016-02-07 16:54 METAR KOFP 072154Z AUTO VRB04KT 10SM CLR 06/M07 A2996 RMK AO2 SLP148 T00611067 =
2016-02-07 15:54 METAR KOFP 072054Z AUTO 01004KT 10SM CLR 07/M06 A2999 RMK AO2 SLP158 T00671061
                 56024 =
2016-02-07 14:54 METAR KOFP 071954Z AUTO 35004KT 10SM CLR 07/M06 A3000 RMK AO2 SLP158 T00671061 =
2016-02-07 13:54 METAR KOFP 071854Z AUTO 35008KT 10SM CLR 07/M07 A3001 RMK AO2 SLP163 T00671067 =
2016-02-07 12:54 METAR KOFP 071754Z AUTO VRB04KT 10SM CLR 06/M05 A3006 RMK AO2 PRESFR SLP182
                 T00611050 10061 21011 58030 =
2016-02-07 11:54 METAR KOFP 071654Z AUTO 02005KT 10SM CLR 06/M04 A3010 RMK AO2 SLP194 T00561044 =
2016-02-07 10:54 METAR KOFP 071554Z AUTO VRB04KT 10SM CLR 04/M05 A3013 RMK AO2 SLP204 T00391050 =
2016-02-07 09:54 METAR KOFP 071454Z AUTO 36003KT 10SM CLR 02/M04 A3015 RMK AO2 SLP212 T00221044
                 56007 =

Support USWX by starting your Amazon purchase here.